createdAt,value
2018-12-22T00:02:20.906Z,14.63
2018-12-22T00:06:24.414Z,14.97
2018-12-22T00:10:27.973Z,15.03
2018-12-22T00:14:31.399Z,14.40
2018-12-22T00:18:34.988Z,13.93
2018-12-22T00:22:38.437Z,13.20
2018-12-22T00:26:41.868Z,13.20
2018-12-22T00:30:45.309Z,13.23
2018-12-22T00:34:51.878Z,14.37
2018-12-22T00:38:55.326Z,13.07
2018-12-22T00:42:58.803Z,12.43
2018-12-22T00:47:02.244Z,12.60
2018-12-22T00:51:05.825Z,13.13
2018-12-22T00:55:09.284Z,12.73
2018-12-22T00:59:12.822Z,13.27
2018-12-22T01:03:16.370Z,12.90
2018-12-22T01:07:19.847Z,12.40
2018-12-22T01:11:23.260Z,12.87
2018-12-22T01:15:26.723Z,12.17
2018-12-22T01:19:30.208Z,11.83
2018-12-22T01:23:33.619Z,12.30
2018-12-22T01:27:37.143Z,11.90
2018-12-22T01:31:40.591Z,10.90
2018-12-22T01:35:44.036Z,10.63
2018-12-22T01:39:47.479Z,11.00
2018-12-22T01:43:50.962Z,10.80
2018-12-22T01:47:54.364Z,11.17
2018-12-22T01:51:57.823Z,12.17
2018-12-22T01:56:01.246Z,10.70
2018-12-22T02:00:05.151Z,11.13
2018-12-22T02:04:08.607Z,10.70
2018-12-22T02:08:12.042Z,11.13
2018-12-22T02:12:15.650Z,11.13
2018-12-22T02:16:19.093Z,12.17
2018-12-22T02:20:22.517Z,12.00
2018-12-22T02:24:25.960Z,11.27
2018-12-22T02:28:29.420Z,11.63
2018-12-22T02:32:32.899Z,10.37
2018-12-22T02:36:36.376Z,11.80
2018-12-22T02:40:39.840Z,11.27
2018-12-22T02:44:43.317Z,10.50
2018-12-22T02:48:46.749Z,10.03
2018-12-22T02:52:50.387Z,9.23
2018-12-22T02:56:53.794Z,8.80
2018-12-22T03:00:57.255Z,8.90
2018-12-22T03:05:00.698Z,8.20
2018-12-22T03:09:05.157Z,8.03
2018-12-22T03:13:08.620Z,7.40
2018-12-22T03:17:12.059Z,6.87
2018-12-22T03:21:15.526Z,5.90
2018-12-22T03:25:18.976Z,7.20
2018-12-22T03:29:22.430Z,7.37
2018-12-22T03:33:25.879Z,6.07
2018-12-22T03:37:29.328Z,5.93
2018-12-22T03:41:32.807Z,6.50
2018-12-22T03:45:36.316Z,5.67
2018-12-22T03:49:39.764Z,5.50
2018-12-22T03:53:43.227Z,5.63
2018-12-22T03:57:46.667Z,5.20
2018-12-22T04:01:50.095Z,5.77
2018-12-22T04:05:53.526Z,5.03
2018-12-22T04:09:56.953Z,4.67
2018-12-22T04:14:00.417Z,4.43
2018-12-22T04:18:04.724Z,4.90
2018-12-22T04:22:08.196Z,4.53
2018-12-22T04:26:11.654Z,4.37
2018-12-22T04:30:15.124Z,4.00
2018-12-22T04:34:18.582Z,3.90
2018-12-22T04:38:22.085Z,3.70
2018-12-22T04:42:25.551Z,3.53
2018-12-22T04:46:29.083Z,3.57
2018-12-22T04:50:32.483Z,3.07
2018-12-22T04:54:35.932Z,3.23
2018-12-22T04:58:39.432Z,2.40
2018-12-22T05:02:42.886Z,2.87
2018-12-22T05:06:46.348Z,2.40
2018-12-22T05:10:49.766Z,2.90
2018-12-22T05:14:53.217Z,1.97
2018-12-22T05:18:56.669Z,2.70
2018-12-22T05:23:00.123Z,2.10
2018-12-22T05:27:03.638Z,2.23
2018-12-22T05:31:07.091Z,1.90
2018-12-22T05:35:10.595Z,2.10
2018-12-22T05:39:14.074Z,1.73
2018-12-22T05:43:17.501Z,1.30
2018-12-22T05:47:20.929Z,1.40
2018-12-22T05:51:24.440Z,1.30
2018-12-22T05:55:27.988Z,1.20
2018-12-22T05:59:31.402Z,1.20
2018-12-22T06:03:34.914Z,1.20
2018-12-22T06:07:38.365Z,1.10
2018-12-22T06:11:41.859Z,1.10
2018-12-22T06:15:45.318Z,1.10
2018-12-22T06:19:48.739Z,1.10
2018-12-22T06:23:52.220Z,1.00
2018-12-22T06:27:55.673Z,1.00
2018-12-22T06:31:59.187Z,1.00
2018-12-22T06:36:02.637Z,1.10
2018-12-22T06:40:06.237Z,1.13
2018-12-22T06:44:09.720Z,1.03
2018-12-22T06:48:13.197Z,1.10
2018-12-22T06:52:16.665Z,1.00
2018-12-22T06:56:20.099Z,0.97
2018-12-22T07:00:23.532Z,0.90
2018-12-22T07:04:27.016Z,1.03
2018-12-22T07:08:30.462Z,1.20
2018-12-22T07:12:33.921Z,1.10
2018-12-22T07:16:37.562Z,1.00
2018-12-22T07:20:41.098Z,1.00
2018-12-22T07:24:44.595Z,1.10
2018-12-22T07:28:48.107Z,1.27
2018-12-22T07:32:56.960Z,1.47
2018-12-22T07:36:57.023Z,1.30
2018-12-22T07:41:00.546Z,1.13
2018-12-22T07:45:04.141Z,1.40
2018-12-22T07:49:07.753Z,1.40
2018-12-22T07:53:11.210Z,1.00
2018-12-22T07:57:14.690Z,1.23
2018-12-22T08:01:19.892Z,1.20
2018-12-22T08:05:23.625Z,0.93
2018-12-22T08:09:27.192Z,1.00
2018-12-22T08:13:30.631Z,0.57
2018-12-22T08:17:34.102Z,0.50
2018-12-22T08:21:37.666Z,0.30
2018-12-22T08:25:41.123Z,0.40
2018-12-22T08:29:44.620Z,0.43
2018-12-22T08:33:48.097Z,0.40
2018-12-22T08:37:51.555Z,0.50
2018-12-22T08:41:55.000Z,0.40
2018-12-22T08:45:58.459Z,0.50
2018-12-22T08:50:09.059Z,0.30
2018-12-22T08:54:07.737Z,0.63
2018-12-22T08:58:11.201Z,0.53
2018-12-22T09:02:14.915Z,0.63
2018-12-22T09:06:18.354Z,0.70
2018-12-22T09:10:21.911Z,0.70
2018-12-22T09:14:25.407Z,0.90
2018-12-22T09:18:28.903Z,1.00
2018-12-22T09:22:32.484Z,1.20
2018-12-22T09:26:36.239Z,1.17
2018-12-22T09:30:39.694Z,1.10
2018-12-22T09:34:43.140Z,1.00
2018-12-22T09:38:46.627Z,1.20
2018-12-22T09:42:50.064Z,1.20
2018-12-22T09:46:53.548Z,1.20
2018-12-22T09:50:57.077Z,0.90
2018-12-22T09:55:00.547Z,0.30
2018-12-22T09:59:03.988Z,0.30
2018-12-22T10:03:07.611Z,0.30
2018-12-22T10:07:11.695Z,0.20
2018-12-22T10:11:15.153Z,0.40
2018-12-22T10:15:18.580Z,0.50
2018-12-22T10:19:22.068Z,0.40
2018-12-22T10:23:25.744Z,0.40
2018-12-22T10:27:29.412Z,0.43
2018-12-22T10:31:32.885Z,0.50
2018-12-22T10:35:36.367Z,0.33
2018-12-22T10:39:39.875Z,0.60
2018-12-22T10:43:43.345Z,0.60
2018-12-22T10:47:46.831Z,0.80
2018-12-22T10:51:50.623Z,0.90
2018-12-22T10:55:54.071Z,0.90
2018-12-22T10:59:57.551Z,0.67
2018-12-22T11:04:01.460Z,0.60
2018-12-22T11:08:05.075Z,0.40
2018-12-22T11:12:08.645Z,0.57
2018-12-22T11:16:12.271Z,0.47
2018-12-22T11:20:16.076Z,0.50
2018-12-22T11:24:19.629Z,0.50
2018-12-22T11:28:23.171Z,1.30
2018-12-22T11:32:26.804Z,0.50
2018-12-22T11:36:30.273Z,0.37
2018-12-22T11:40:33.934Z,0.53
2018-12-22T11:44:37.470Z,0.50
2018-12-22T11:48:51.848Z,0.50
2018-12-22T11:52:55.350Z,0.60
2018-12-22T11:56:58.860Z,0.73
2018-12-22T12:01:02.324Z,0.40
2018-12-22T12:05:07.246Z,0.50
2018-12-22T12:09:10.805Z,0.60
2018-12-22T12:13:14.266Z,0.40
2018-12-22T12:17:34.403Z,0.40
2018-12-22T12:21:37.909Z,0.47
2018-12-22T12:25:41.375Z,0.50
2018-12-22T12:29:44.952Z,0.30
2018-12-22T12:33:48.408Z,0.40
2018-12-22T12:37:51.840Z,0.40
2018-12-22T12:41:55.291Z,0.50
2018-12-22T12:45:58.848Z,0.20
2018-12-22T12:50:02.580Z,0.70
2018-12-22T12:54:06.579Z,0.00
2018-12-22T12:58:10.182Z,0.20
2018-12-22T13:02:13.653Z,0.43
2018-12-22T13:06:17.192Z,0.40
2018-12-22T13:10:20.892Z,0.30
2018-12-22T13:14:25.227Z,0.20
2018-12-22T13:18:28.703Z,0.40
2018-12-22T13:22:32.172Z,0.40
2018-12-22T13:26:36.835Z,0.50
2018-12-22T13:30:40.923Z,0.40
2018-12-22T13:34:46.306Z,0.50
2018-12-22T13:38:54.142Z,0.47
2018-12-22T13:42:57.617Z,0.43
2018-12-22T13:47:01.087Z,0.43
2018-12-22T13:51:04.694Z,0.50
2018-12-22T13:55:08.663Z,0.80
2018-12-22T13:59:12.131Z,0.50
2018-12-22T14:03:20.201Z,0.37
2018-12-22T14:07:23.697Z,0.50
2018-12-22T14:11:27.223Z,0.50
2018-12-22T14:15:31.044Z,0.50
2018-12-22T14:19:34.771Z,0.53
2018-12-22T14:24:02.540Z,0.60
2018-12-22T14:28:06.137Z,0.60
2018-12-22T14:32:09.595Z,0.60
2018-12-22T14:36:14.335Z,0.60
2018-12-22T14:40:17.804Z,0.60
2018-12-22T14:44:21.316Z,0.80
2018-12-22T14:48:24.742Z,0.70
2018-12-22T14:52:28.216Z,0.40
2018-12-22T14:56:36.737Z,0.50
2018-12-22T15:00:40.323Z,0.43
2018-12-22T15:04:43.776Z,0.60
2018-12-22T15:08:47.221Z,0.50
2018-12-22T15:12:50.675Z,0.50
2018-12-22T15:16:54.245Z,0.50
2018-12-22T15:20:59.043Z,0.63
2018-12-22T15:25:02.588Z,0.60
2018-12-22T15:29:06.100Z,0.70
2018-12-22T15:33:09.625Z,0.60
2018-12-22T15:37:13.144Z,0.50
2018-12-22T15:41:16.669Z,0.60
2018-12-22T15:45:20.180Z,0.70
2018-12-22T15:49:24.107Z,0.80
2018-12-22T15:53:27.576Z,0.53
2018-12-22T15:57:31.042Z,0.60
2018-12-22T16:01:34.510Z,0.70
2018-12-22T16:05:38.018Z,0.60
2018-12-22T16:09:41.809Z,0.60
2018-12-22T16:13:45.427Z,0.60
2018-12-22T16:17:48.916Z,0.70
2018-12-22T16:21:52.420Z,0.70
2018-12-22T16:25:55.923Z,0.63
2018-12-22T16:29:59.403Z,0.70
2018-12-22T16:34:03.444Z,0.60
2018-12-22T16:38:06.969Z,0.80
2018-12-22T16:42:10.462Z,0.60
2018-12-22T16:46:13.934Z,0.77
2018-12-22T16:50:17.470Z,0.60
2018-12-22T16:54:20.906Z,0.80
2018-12-22T16:58:34.308Z,0.70
2018-12-22T17:02:45.861Z,0.67
2018-12-22T17:06:49.397Z,0.60
2018-12-22T17:10:57.444Z,0.47
2018-12-22T17:15:01.151Z,0.50
2018-12-22T17:19:04.618Z,0.60
2018-12-22T17:23:33.496Z,0.40
2018-12-22T17:27:37.442Z,0.50
2018-12-22T17:31:42.698Z,0.40
2018-12-22T17:35:46.358Z,0.20
2018-12-22T17:39:53.557Z,0.30
2018-12-22T17:43:55.982Z,0.20
2018-12-22T17:47:59.602Z,0.40
2018-12-22T17:52:03.143Z,0.30
2018-12-22T17:56:06.628Z,0.40
2018-12-22T18:00:11.297Z,0.30
2018-12-22T18:04:15.255Z,0.30
2018-12-22T18:08:18.733Z,0.30
2018-12-22T18:12:22.273Z,0.50
2018-12-22T18:16:25.779Z,0.50
2018-12-22T18:20:29.267Z,0.40
2018-12-22T18:24:32.846Z,0.63
2018-12-22T18:28:36.352Z,0.73
2018-12-22T18:32:39.997Z,0.77
2018-12-22T18:36:43.721Z,0.70
2018-12-22T18:40:47.342Z,0.70
2018-12-22T18:44:51.399Z,0.60
2018-12-22T18:48:55.089Z,0.70
2018-12-22T18:52:58.591Z,0.80
2018-12-22T18:57:02.312Z,0.70
2018-12-22T19:01:06.030Z,0.63
2018-12-22T19:05:09.571Z,0.60
2018-12-22T19:09:18.469Z,0.90
2018-12-22T19:13:22.165Z,0.70
2018-12-22T19:17:25.923Z,0.77
2018-12-22T19:21:29.668Z,0.80
2018-12-22T19:25:33.330Z,0.67
2018-12-22T19:29:37.006Z,0.60
2018-12-22T19:33:40.787Z,0.70
2018-12-22T19:37:44.566Z,0.53
2018-12-22T19:41:48.305Z,0.70
2018-12-22T19:45:52.691Z,0.63
2018-12-22T19:49:56.410Z,0.70
2018-12-22T19:53:59.922Z,0.70
2018-12-22T19:58:03.724Z,0.60
2018-12-22T20:02:07.472Z,0.60
2018-12-22T20:06:11.047Z,0.63
2018-12-22T20:10:14.903Z,0.60
2018-12-22T20:14:18.548Z,0.70
2018-12-22T20:18:22.230Z,0.70
2018-12-22T20:22:25.965Z,0.60
2018-12-22T20:26:29.655Z,0.80
2018-12-22T20:30:33.248Z,0.77
2018-12-22T20:34:36.903Z,0.77
2018-12-22T20:38:41.229Z,0.70
2018-12-22T20:42:44.742Z,1.10
2018-12-22T20:46:48.312Z,0.70
2018-12-22T20:50:51.873Z,0.83
2018-12-22T20:54:55.377Z,0.90
2018-12-22T20:58:58.984Z,0.70
2018-12-22T21:03:02.665Z,1.00
2018-12-22T21:07:06.260Z,0.70
2018-12-22T21:11:09.740Z,0.73
2018-12-22T21:15:13.291Z,0.60
2018-12-22T21:19:17.023Z,0.60
2018-12-22T21:23:20.483Z,0.77
2018-12-22T21:27:24.104Z,1.00
2018-12-22T21:31:29.247Z,0.77
2018-12-22T21:35:36.000Z,0.90
2018-12-22T21:39:41.276Z,0.90
2018-12-22T21:43:44.982Z,0.90
2018-12-22T21:47:50.699Z,0.73
2018-12-22T21:51:54.483Z,0.70
2018-12-22T21:55:58.088Z,0.90
2018-12-22T22:00:01.625Z,0.90
2018-12-22T22:04:05.276Z,0.97
2018-12-22T22:08:08.909Z,1.10
2018-12-22T22:12:12.660Z,0.93
2018-12-22T22:16:16.354Z,0.70
2018-12-22T22:20:20.124Z,0.90
2018-12-22T22:24:23.861Z,1.00
2018-12-22T22:28:34.091Z,0.90
2018-12-22T22:32:37.715Z,0.90
2018-12-22T22:36:41.524Z,1.00
2018-12-22T22:40:45.350Z,0.90
2018-12-22T22:44:48.932Z,1.00
2018-12-22T22:48:52.466Z,1.00
2018-12-22T22:52:55.965Z,1.00
2018-12-22T22:56:59.571Z,1.00
2018-12-22T23:01:03.417Z,1.00
2018-12-22T23:05:06.971Z,1.10
2018-12-22T23:09:10.560Z,1.00
2018-12-22T23:13:14.160Z,1.00
2018-12-22T23:17:17.863Z,1.00
2018-12-22T23:21:21.322Z,0.90
2018-12-22T23:25:24.784Z,1.00
2018-12-22T23:29:28.244Z,1.20
2018-12-22T23:33:31.819Z,0.90
2018-12-22T23:37:35.487Z,0.90
2018-12-22T23:41:39.221Z,1.00
2018-12-22T23:45:42.712Z,0.90
2018-12-22T23:49:46.443Z,0.80
2018-12-22T23:53:50.253Z,1.00
2018-12-22T23:57:53.914Z,0.90
